createdAt,value
2022-11-14T00:01:31.332Z,100.00
2022-11-14T00:16:32.842Z,100.00
2022-11-14T00:31:34.318Z,100.00
2022-11-14T00:46:35.825Z,100.00
2022-11-14T01:01:37.319Z,100.00
2022-11-14T01:16:38.842Z,100.00
2022-11-14T01:31:40.298Z,100.00
2022-11-14T01:46:43.259Z,100.00
2022-11-14T02:01:46.286Z,100.00
2022-11-14T02:17:14.332Z,100.00
2022-11-14T02:32:11.093Z,100.00
2022-11-14T02:47:12.720Z,100.00
2022-11-14T03:02:14.462Z,100.00
2022-11-14T03:17:15.991Z,100.00
2022-11-14T03:32:17.524Z,100.00
2022-11-14T03:47:19.017Z,100.00
2022-11-14T04:02:20.509Z,100.00
2022-11-14T04:17:21.973Z,100.00
2022-11-14T04:32:23.406Z,100.00
2022-11-14T04:47:24.908Z,100.00
2022-11-14T05:02:26.373Z,100.00
2022-11-14T05:17:28.337Z,100.00
2022-11-14T05:32:29.790Z,100.00
2022-11-14T05:47:31.220Z,100.00
2022-11-14T06:02:32.825Z,100.00
2022-11-14T06:17:34.348Z,100.00
2022-11-14T06:32:35.858Z,100.00
2022-11-14T06:47:37.338Z,100.00
2022-11-14T07:02:39.380Z,100.00
2022-11-14T07:17:40.922Z,100.00
2022-11-14T07:32:42.477Z,100.00
2022-11-14T07:47:43.965Z,100.00
2022-11-14T08:02:46.183Z,100.00
2022-11-14T08:17:47.664Z,100.00
2022-11-14T08:32:49.143Z,100.00
2022-11-14T08:47:51.308Z,100.00
2022-11-14T09:02:52.893Z,100.00
2022-11-14T09:17:55.422Z,100.00
2022-11-14T09:32:59.191Z,100.00
2022-11-14T09:48:05.722Z,92.19
2022-11-14T10:03:07.184Z,85.92
2022-11-14T10:18:11.791Z,86.06
2022-11-14T10:33:19.125Z,81.02
2022-11-14T10:48:31.654Z,73.63
2022-11-14T11:03:43.463Z,69.59
2022-11-14T11:18:49.752Z,67.45
2022-11-14T11:33:52.128Z,66.18
2022-11-14T11:49:00.226Z,67.62
2022-11-14T12:04:02.168Z,69.11
2022-11-14T12:19:13.155Z,69.25
2022-11-14T12:34:22.379Z,60.18
2022-11-14T12:49:37.580Z,66.43
2022-11-14T13:04:57.689Z,66.43
2022-11-14T13:20:17.696Z,66.17
2022-11-14T13:35:25.258Z,65.82
2022-11-14T13:50:31.480Z,78.85
2022-11-14T14:05:32.995Z,88.90
2022-11-14T14:20:39.598Z,91.49
2022-11-14T14:35:50.239Z,88.33
2022-11-14T14:50:53.850Z,92.44
2022-11-14T15:06:03.974Z,93.38
2022-11-14T15:21:09.457Z,97.71
2022-11-14T15:36:17.895Z,95.86
2022-11-14T15:51:19.389Z,99.67
2022-11-14T16:06:21.339Z,94.98
2022-11-14T16:21:22.824Z,93.41
2022-11-14T16:36:24.410Z,100.00
2022-11-14T17:06:47.376Z,94.95
2022-11-14T17:21:48.908Z,100.00
2022-11-14T17:36:50.364Z,98.22
2022-11-14T17:51:51.923Z,100.00
2022-11-14T18:06:53.479Z,100.00
2022-11-14T18:21:55.108Z,100.00
2022-11-14T18:36:56.535Z,100.00
2022-11-14T18:52:00.127Z,100.00
2022-11-14T19:07:03.682Z,100.00
2022-11-14T19:22:05.212Z,100.00
2022-11-14T19:37:06.660Z,100.00
2022-11-14T19:52:08.424Z,100.00
2022-11-14T20:07:10.032Z,100.00
2022-11-14T20:22:11.507Z,100.00
2022-11-14T20:37:12.970Z,100.00
2022-11-14T20:52:16.014Z,100.00
2022-11-14T21:07:17.605Z,100.00
2022-11-14T21:22:19.310Z,100.00
2022-11-14T21:37:20.792Z,100.00
2022-11-14T21:52:22.498Z,100.00
2022-11-14T22:16:08.300Z,100.00
2022-11-14T22:31:11.851Z,100.00
2022-11-14T22:46:14.203Z,100.00
2022-11-14T23:01:23.391Z,100.00
2022-11-14T23:16:28.589Z,100.00
2022-11-14T23:31:30.070Z,100.00
2022-11-14T23:46:37.761Z,100.00
